createdAt,value
2022-11-24T00:01:20.251Z,10.40
2022-11-24T00:03:54.066Z,10.10
2022-11-24T00:06:21.667Z,9.50
2022-11-24T00:08:49.361Z,8.00
2022-11-24T00:11:25.980Z,8.90
2022-11-24T00:13:54.455Z,9.50
2022-11-24T00:16:25.761Z,10.40
2022-11-24T00:18:55.613Z,10.10
2022-11-24T00:21:24.697Z,8.30
2022-11-24T00:23:53.135Z,10.00
2022-11-24T00:26:23.569Z,9.60
2022-11-24T00:28:53.641Z,10.30
2022-11-24T00:31:29.785Z,8.40
2022-11-24T00:34:03.962Z,10.20
2022-11-24T00:36:33.873Z,9.60
2022-11-24T00:39:04.418Z,9.80
2022-11-24T00:41:32.177Z,11.40
2022-11-24T00:44:00.676Z,9.60
2022-11-24T00:46:28.986Z,10.40
2022-11-24T00:48:57.347Z,10.30
2022-11-24T00:51:35.821Z,12.40
2022-11-24T00:54:03.684Z,11.40
2022-11-24T00:56:31.350Z,11.40
2022-11-24T00:58:59.288Z,10.80
2022-11-24T01:01:30.255Z,11.20
2022-11-24T01:04:01.301Z,11.90
2022-11-24T01:06:29.978Z,11.40
2022-11-24T01:08:58.174Z,11.90
2022-11-24T01:11:28.757Z,11.70
2022-11-24T01:13:58.796Z,11.70
2022-11-24T01:16:28.527Z,10.60
2022-11-24T01:18:56.994Z,10.40
2022-11-24T01:21:24.701Z,10.20
2022-11-24T01:23:52.301Z,11.10
2022-11-24T01:26:22.236Z,10.50
2022-11-24T01:28:57.971Z,11.80
2022-11-24T01:31:26.390Z,10.60
2022-11-24T01:33:54.356Z,10.70
2022-11-24T01:36:22.979Z,10.30
2022-11-24T01:38:51.366Z,10.20
2022-11-24T01:41:18.897Z,10.10
2022-11-24T01:43:47.839Z,10.40
2022-11-24T01:46:28.264Z,10.50
2022-11-24T01:49:12.002Z,11.20
2022-11-24T01:51:46.425Z,11.00
2022-11-24T01:54:25.163Z,10.10
2022-11-24T01:56:57.005Z,11.10
2022-11-24T01:59:25.968Z,11.70
2022-11-24T02:01:56.122Z,12.80
2022-11-24T02:04:29.775Z,11.00
2022-11-24T02:07:01.697Z,10.60
2022-11-24T02:09:49.500Z,11.10
2022-11-24T02:12:17.147Z,11.20
2022-11-24T02:14:45.684Z,10.60
2022-11-24T02:17:13.354Z,10.90
2022-11-24T02:19:40.838Z,10.90
2022-11-24T02:22:21.752Z,10.70
2022-11-24T02:25:02.891Z,12.60
2022-11-24T02:27:30.792Z,10.10
2022-11-24T02:29:59.123Z,11.20
2022-11-24T02:32:28.279Z,11.60
2022-11-24T02:35:05.531Z,10.60
2022-11-24T02:37:33.148Z,11.50
2022-11-24T02:40:00.768Z,10.70
2022-11-24T02:42:35.230Z,11.80
2022-11-24T02:45:03.550Z,11.60
2022-11-24T02:47:31.125Z,11.70
2022-11-24T02:49:58.981Z,11.80
2022-11-24T02:52:26.531Z,10.60
2022-11-24T02:54:54.152Z,12.80
2022-11-24T02:57:23.288Z,11.50
2022-11-24T02:59:50.853Z,11.90
2022-11-24T03:02:18.431Z,12.30
2022-11-24T03:04:46.078Z,11.80
2022-11-24T03:07:14.697Z,12.40
2022-11-24T03:09:42.633Z,13.00
2022-11-24T03:12:10.204Z,12.90
2022-11-24T03:14:37.729Z,14.60
2022-11-24T03:17:05.439Z,13.40
2022-11-24T03:19:33.173Z,12.60
2022-11-24T03:22:00.730Z,14.20
2022-11-24T03:24:28.337Z,13.70
2022-11-24T03:26:55.951Z,12.70
2022-11-24T03:29:23.573Z,14.60
2022-11-24T03:31:51.151Z,14.80
2022-11-24T03:34:18.724Z,15.10
2022-11-24T03:36:46.326Z,13.70
2022-11-24T03:39:13.877Z,13.70
2022-11-24T03:41:41.431Z,14.10
2022-11-24T03:44:09.258Z,14.20
2022-11-24T03:46:37.003Z,15.80
2022-11-24T03:49:04.683Z,13.30
2022-11-24T03:51:32.234Z,18.40
2022-11-24T03:53:59.804Z,14.20
2022-11-24T03:56:28.063Z,18.00
2022-11-24T03:58:56.233Z,16.50
2022-11-24T04:01:23.973Z,15.10
2022-11-24T04:03:51.665Z,14.30
2022-11-24T04:06:19.257Z,14.30
2022-11-24T04:08:46.820Z,14.10
2022-11-24T04:11:34.358Z,14.00
2022-11-24T04:14:01.897Z,13.90
2022-11-24T04:16:29.500Z,15.20
2022-11-24T04:18:57.437Z,15.80
2022-11-24T04:21:24.974Z,15.90
2022-11-24T04:23:52.628Z,15.10
2022-11-24T04:26:20.156Z,14.60
2022-11-24T04:28:47.724Z,13.50
2022-11-24T04:31:15.366Z,13.40
2022-11-24T04:33:43.134Z,12.70
2022-11-24T04:36:11.247Z,14.10
2022-11-24T04:39:23.588Z,13.50
2022-11-24T04:41:26.380Z,12.70
2022-11-24T04:43:53.932Z,12.30
2022-11-24T04:46:21.558Z,12.90
2022-11-24T04:48:49.411Z,10.90
2022-11-24T04:51:17.030Z,13.80
2022-11-24T04:53:44.643Z,13.10
2022-11-24T04:56:12.163Z,13.60
2022-11-24T04:58:39.758Z,12.50
2022-11-24T05:01:08.502Z,13.50
2022-11-24T05:03:36.926Z,12.60
2022-11-24T05:06:04.855Z,12.80
2022-11-24T05:08:32.455Z,11.70
2022-11-24T05:11:07.535Z,11.70
2022-11-24T05:13:35.056Z,10.00
2022-11-24T05:16:02.801Z,12.30
2022-11-24T05:18:30.483Z,11.20
2022-11-24T05:20:59.056Z,11.10
2022-11-24T05:23:27.115Z,11.20
2022-11-24T05:25:54.813Z,12.60
2022-11-24T05:28:22.389Z,11.20
2022-11-24T05:30:49.990Z,11.70
2022-11-24T05:33:18.904Z,11.90
2022-11-24T05:35:48.196Z,12.70
2022-11-24T05:38:17.298Z,11.70
2022-11-24T05:40:44.828Z,12.80
2022-11-24T05:43:16.644Z,13.70
2022-11-24T05:45:45.018Z,14.00
2022-11-24T05:48:15.088Z,12.20
2022-11-24T05:50:42.661Z,12.10
2022-11-24T05:53:12.875Z,12.00
2022-11-24T05:55:41.917Z,11.10
2022-11-24T05:58:10.317Z,10.20
2022-11-24T06:00:37.868Z,10.70
2022-11-24T06:03:05.610Z,11.30
2022-11-24T06:05:33.358Z,12.60
2022-11-24T06:08:00.978Z,12.10
2022-11-24T06:10:28.586Z,10.70
2022-11-24T06:12:56.190Z,11.90
2022-11-24T06:15:23.730Z,11.50
2022-11-24T06:17:55.753Z,12.20
2022-11-24T06:20:29.723Z,10.90
2022-11-24T06:23:01.472Z,12.20
2022-11-24T06:25:29.489Z,11.10
2022-11-24T06:27:57.042Z,11.70
2022-11-24T06:30:24.773Z,11.20
2022-11-24T06:32:55.684Z,12.40
2022-11-24T06:35:25.478Z,10.90
2022-11-24T06:37:53.225Z,13.40
2022-11-24T06:40:20.928Z,11.90
2022-11-24T06:42:52.679Z,11.40
2022-11-24T06:45:20.277Z,12.80
2022-11-24T06:47:47.842Z,13.30
2022-11-24T06:50:15.792Z,11.80
2022-11-24T06:52:44.086Z,11.80
2022-11-24T06:55:11.696Z,15.10
2022-11-24T06:57:39.366Z,14.40
2022-11-24T07:00:09.289Z,12.60
2022-11-24T07:02:45.661Z,12.40
2022-11-24T07:05:15.195Z,16.30
2022-11-24T07:07:46.172Z,17.30
2022-11-24T07:10:17.825Z,31.70
2022-11-24T07:12:45.709Z,20.30
2022-11-24T07:15:14.343Z,35.30
2022-11-24T07:17:41.945Z,24.30
2022-11-24T07:20:10.233Z,13.60
2022-11-24T07:22:37.875Z,12.60
2022-11-24T07:25:07.541Z,11.60
2022-11-24T07:27:36.060Z,11.30
2022-11-24T07:30:04.416Z,11.30
2022-11-24T07:32:32.858Z,22.40
2022-11-24T07:35:00.449Z,12.70
2022-11-24T07:37:31.211Z,31.20
2022-11-24T07:39:59.343Z,28.90
2022-11-24T07:42:27.639Z,18.20
2022-11-24T07:44:55.196Z,24.40
2022-11-24T07:47:22.722Z,13.20
2022-11-24T07:49:50.420Z,11.90
2022-11-24T07:52:18.327Z,12.00
2022-11-24T07:54:48.820Z,12.40
2022-11-24T07:57:16.615Z,12.40
2022-11-24T07:59:44.237Z,12.90
2022-11-24T08:02:13.485Z,11.80
2022-11-24T08:04:41.366Z,12.20
2022-11-24T08:07:09.139Z,11.40
2022-11-24T08:09:38.865Z,12.90
2022-11-24T08:12:06.746Z,12.90
2022-11-24T08:14:34.713Z,11.90
2022-11-24T08:17:02.604Z,12.40
2022-11-24T08:19:32.230Z,10.20
2022-11-24T08:22:00.574Z,11.00
2022-11-24T08:24:28.982Z,12.30
2022-11-24T08:26:58.615Z,12.90
2022-11-24T08:29:31.019Z,12.50
2022-11-24T08:32:02.717Z,11.00
2022-11-24T08:34:32.534Z,11.50
2022-11-24T08:37:10.236Z,11.80
2022-11-24T08:39:38.444Z,13.50
2022-11-24T08:42:08.295Z,12.20
2022-11-24T08:44:38.667Z,12.40
2022-11-24T08:47:06.345Z,13.60
2022-11-24T08:49:34.016Z,13.30
2022-11-24T08:52:01.616Z,14.00
2022-11-24T08:54:29.323Z,13.70
2022-11-24T08:56:57.246Z,12.70
2022-11-24T08:59:25.020Z,15.00
2022-11-24T09:01:52.879Z,18.90
2022-11-24T09:04:20.929Z,22.00
2022-11-24T09:06:51.239Z,21.30
2022-11-24T09:09:19.142Z,23.60
2022-11-24T09:11:46.763Z,29.90
2022-11-24T09:14:14.431Z,21.40
2022-11-24T09:16:44.490Z,13.90
2022-11-24T09:19:12.508Z,13.80
2022-11-24T09:21:40.278Z,14.40
2022-11-24T09:24:08.656Z,15.20
2022-11-24T09:26:40.626Z,17.10
2022-11-24T09:29:11.082Z,13.20
2022-11-24T09:31:39.580Z,13.00
2022-11-24T09:34:11.852Z,17.60
2022-11-24T09:36:39.900Z,33.60
2022-11-24T09:39:08.083Z,18.00
2022-11-24T09:42:02.617Z,15.20
2022-11-24T09:44:54.484Z,18.70
2022-11-24T09:47:41.480Z,13.00
2022-11-24T09:50:21.783Z,12.50
2022-11-24T09:53:01.446Z,14.90
2022-11-24T09:55:48.405Z,14.50
2022-11-24T09:58:50.946Z,17.00
2022-11-24T10:01:26.324Z,23.20
2022-11-24T10:03:55.198Z,19.20
2022-11-24T10:06:26.852Z,21.50
2022-11-24T10:09:19.278Z,20.90
2022-11-24T10:11:53.231Z,25.40
2022-11-24T10:14:39.904Z,50.30
2022-11-24T10:17:13.797Z,24.40
2022-11-24T10:20:19.521Z,17.50
2022-11-24T10:23:25.856Z,74.20
2022-11-24T10:26:02.128Z,44.00
2022-11-24T10:28:47.408Z,26.20
2022-11-24T10:31:26.306Z,13.80
2022-11-24T10:34:12.488Z,13.00
2022-11-24T10:37:00.771Z,17.00
2022-11-24T10:40:10.857Z,13.40
2022-11-24T10:42:48.791Z,21.30
2022-11-24T10:45:19.557Z,14.00
2022-11-24T10:47:47.201Z,13.50
2022-11-24T10:50:25.039Z,12.50
2022-11-24T10:53:08.804Z,13.70
2022-11-24T10:55:58.621Z,13.30
2022-11-24T10:58:38.867Z,16.50
2022-11-24T11:01:12.825Z,15.70
2022-11-24T11:03:52.561Z,16.60
2022-11-24T11:06:29.321Z,22.30
2022-11-24T11:09:13.036Z,19.80
2022-11-24T11:11:41.791Z,22.20
2022-11-24T11:14:12.875Z,15.00
2022-11-24T11:16:42.243Z,10.40
2022-11-24T11:19:50.219Z,10.30
2022-11-24T11:22:35.775Z,11.80
2022-11-24T11:25:06.023Z,21.10
2022-11-24T11:27:34.867Z,12.00
2022-11-24T11:36:13.785Z,16.80
2022-11-24T11:38:43.292Z,20.70
2022-11-24T11:41:20.667Z,33.30
2022-11-24T11:43:57.142Z,37.30
2022-11-24T11:46:28.954Z,24.00
2022-11-24T11:48:56.740Z,17.40
2022-11-24T11:52:00.449Z,20.10
2022-11-24T11:54:38.471Z,18.40
2022-11-24T11:57:28.764Z,19.70
2022-11-24T12:00:20.341Z,24.60
2022-11-24T12:03:20.173Z,13.50
2022-11-24T12:05:58.591Z,11.90
2022-11-24T12:09:18.174Z,12.90
2022-11-24T12:12:08.047Z,13.30
2022-11-24T12:14:52.487Z,13.20
2022-11-24T12:17:35.922Z,20.20
2022-11-24T12:20:18.993Z,15.60
2022-11-24T12:23:02.391Z,21.00
2022-11-24T12:25:51.467Z,27.70
2022-11-24T12:28:51.018Z,23.10
2022-11-24T12:31:31.113Z,18.60
2022-11-24T12:34:30.821Z,14.30
2022-11-24T12:37:21.887Z,21.00
2022-11-24T12:40:03.845Z,21.60
2022-11-24T12:42:57.523Z,15.50
2022-11-24T12:45:36.443Z,22.40
2022-11-24T12:48:23.930Z,17.80
2022-11-24T12:50:55.325Z,14.50
2022-11-24T12:53:30.734Z,50.40
2022-11-24T12:56:06.454Z,14.90
2022-11-24T12:58:50.192Z,17.90
2022-11-24T13:01:34.472Z,16.00
2022-11-24T13:04:10.068Z,16.70
2022-11-24T13:06:50.974Z,17.40
2022-11-24T13:09:18.934Z,17.60
2022-11-24T13:11:48.970Z,15.30
2022-11-24T13:14:37.710Z,20.50
2022-11-24T13:17:38.404Z,28.00
2022-11-24T13:20:31.411Z,25.00
2022-11-24T13:23:02.692Z,20.40
2022-11-24T13:25:33.118Z,37.80
2022-11-24T13:28:02.834Z,43.90
2022-11-24T13:30:33.369Z,32.30
2022-11-24T13:33:19.553Z,22.30
2022-11-24T13:36:07.794Z,21.20
2022-11-24T13:38:52.791Z,26.30
2022-11-24T13:41:36.231Z,19.10
2022-11-24T13:44:24.280Z,18.70
2022-11-24T13:47:27.669Z,17.80
2022-11-24T13:49:55.209Z,16.10
2022-11-24T13:52:38.745Z,31.00
2022-11-24T13:55:12.535Z,14.20
2022-11-24T13:57:46.283Z,14.90
2022-11-24T14:00:58.370Z,13.60
2022-11-24T14:03:34.642Z,21.80
2022-11-24T14:06:03.621Z,14.60
2022-11-24T14:08:36.471Z,20.10
2022-11-24T14:11:14.187Z,14.40
2022-11-24T14:13:41.863Z,16.60
2022-11-24T14:16:09.406Z,19.80
2022-11-24T14:18:39.457Z,16.20
2022-11-24T14:21:23.739Z,23.50
2022-11-24T14:24:00.269Z,20.90
2022-11-24T14:26:30.750Z,17.50
2022-11-24T14:29:07.449Z,19.90
2022-11-24T14:31:35.064Z,23.90
2022-11-24T14:34:18.126Z,30.10
2022-11-24T14:36:45.659Z,31.30
2022-11-24T14:39:16.010Z,33.20
2022-11-24T14:42:03.588Z,27.80
2022-11-24T14:44:48.230Z,16.70
2022-11-24T14:47:33.804Z,16.80
2022-11-24T14:50:21.498Z,18.10
2022-11-24T14:52:56.460Z,18.80
2022-11-24T14:55:31.935Z,18.90
2022-11-24T14:57:59.977Z,20.40
2022-11-24T15:00:31.425Z,22.40
2022-11-24T15:03:02.074Z,16.80
2022-11-24T15:05:50.261Z,15.70
2022-11-24T15:08:18.365Z,18.20
2022-11-24T15:10:46.654Z,21.80
2022-11-24T15:13:18.211Z,24.70
2022-11-24T15:16:00.519Z,23.80
2022-11-24T15:18:47.867Z,21.80
2022-11-24T15:21:19.532Z,18.50
2022-11-24T15:24:15.412Z,22.10
2022-11-24T15:26:44.115Z,19.90
2022-11-24T15:29:12.597Z,25.40
2022-11-24T15:31:41.656Z,28.50
2022-11-24T15:34:13.952Z,25.10
2022-11-24T15:36:41.471Z,23.40
2022-11-24T15:39:09.066Z,24.70
2022-11-24T15:41:36.642Z,21.10
2022-11-24T15:44:04.403Z,21.80
2022-11-24T15:46:38.571Z,19.30
2022-11-24T15:49:07.171Z,22.00
2022-11-24T15:51:36.193Z,22.90
2022-11-24T15:54:03.869Z,26.20
2022-11-24T15:56:36.817Z,17.00
2022-11-24T15:59:04.564Z,16.20
2022-11-24T16:01:34.470Z,30.10
2022-11-24T16:04:03.106Z,36.40
2022-11-24T16:06:30.835Z,35.00
2022-11-24T16:08:59.054Z,21.50
2022-11-24T16:11:26.850Z,21.90
2022-11-24T16:13:54.752Z,21.00
2022-11-24T16:16:24.972Z,21.20
2022-11-24T16:18:53.064Z,22.70
2022-11-24T16:21:20.584Z,27.60
2022-11-24T16:23:48.720Z,25.20
2022-11-24T16:26:16.437Z,18.90
2022-11-24T16:28:45.630Z,26.90
2022-11-24T16:31:16.126Z,30.70
2022-11-24T16:33:47.434Z,23.30
2022-11-24T16:36:15.082Z,20.70
2022-11-24T16:38:42.639Z,20.30
2022-11-24T16:41:10.735Z,20.50
2022-11-24T16:43:38.778Z,24.30
2022-11-24T16:46:26.346Z,24.60
2022-11-24T16:48:57.308Z,19.60
2022-11-24T16:51:28.710Z,21.40
2022-11-24T16:54:01.352Z,19.00
2022-11-24T16:56:30.555Z,28.60
2022-11-24T16:58:58.103Z,23.30
2022-11-24T17:01:26.280Z,18.60
2022-11-24T17:03:53.893Z,26.80
2022-11-24T17:06:22.117Z,35.00
2022-11-24T17:08:49.780Z,28.50
2022-11-24T17:11:20.102Z,24.70
2022-11-24T17:13:49.308Z,27.30
2022-11-24T17:16:19.845Z,22.60
2022-11-24T17:18:47.998Z,19.40
2022-11-24T17:21:18.076Z,30.40
2022-11-24T17:23:46.337Z,33.30
2022-11-24T17:26:16.208Z,68.90
2022-11-24T17:28:45.112Z,84.70
2022-11-24T17:31:15.851Z,38.40
2022-11-24T17:33:43.446Z,19.80
2022-11-24T17:36:10.972Z,23.20
2022-11-24T17:38:38.907Z,19.90
2022-11-24T17:41:06.394Z,23.90
2022-11-24T17:43:34.449Z,18.90
2022-11-24T17:46:04.530Z,20.40
2022-11-24T17:48:32.794Z,19.40
2022-11-24T17:51:09.466Z,21.50
2022-11-24T17:53:37.455Z,29.70
2022-11-24T17:56:07.237Z,29.70
2022-11-24T17:58:41.273Z,25.70
2022-11-24T18:01:12.686Z,32.40
2022-11-24T18:03:41.446Z,26.80
2022-11-24T18:06:11.790Z,29.00
2022-11-24T18:08:44.905Z,36.30
2022-11-24T18:11:14.053Z,19.10
2022-11-24T18:13:58.529Z,23.80
2022-11-24T18:16:30.397Z,39.90
2022-11-24T18:19:10.166Z,47.20
2022-11-24T18:21:42.278Z,42.20
2022-11-24T18:24:11.364Z,30.30
2022-11-24T18:26:40.718Z,35.10
2022-11-24T18:29:09.830Z,27.20
2022-11-24T18:31:38.155Z,47.60
2022-11-24T18:34:06.181Z,37.00
2022-11-24T18:36:34.863Z,65.80
2022-11-24T18:39:04.926Z,35.20
2022-11-24T18:41:32.834Z,32.20
2022-11-24T18:44:08.610Z,30.80
2022-11-24T18:46:37.692Z,25.10
2022-11-24T18:49:06.899Z,23.10
2022-11-24T18:51:34.748Z,23.40
2022-11-24T18:54:04.029Z,24.40
2022-11-24T18:56:31.540Z,27.10
2022-11-24T18:58:59.028Z,34.10
2022-11-24T19:01:28.675Z,34.00
2022-11-24T19:03:58.860Z,29.00
2022-11-24T19:06:35.674Z,21.70
2022-11-24T19:09:25.319Z,19.50
2022-11-24T19:11:52.953Z,22.00
2022-11-24T19:14:20.396Z,18.60
2022-11-24T19:16:48.328Z,21.00
2022-11-24T19:19:17.093Z,19.30
2022-11-24T19:21:44.879Z,21.50
2022-11-24T19:24:13.363Z,19.90
2022-11-24T19:26:41.241Z,17.80
2022-11-24T19:29:08.790Z,24.20
2022-11-24T19:31:39.255Z,19.00
2022-11-24T19:34:07.882Z,16.30
2022-11-24T19:36:36.049Z,18.80
2022-11-24T19:39:05.167Z,19.50
2022-11-24T19:41:35.224Z,27.20
2022-11-24T19:44:02.836Z,26.20
2022-11-24T19:46:30.586Z,52.90
2022-11-24T19:49:00.771Z,158.10
2022-11-24T19:51:33.812Z,45.20
2022-11-24T19:54:02.175Z,35.50
2022-11-24T19:56:33.934Z,30.50
2022-11-24T19:59:04.019Z,27.60
2022-11-24T20:01:34.589Z,28.70
2022-11-24T20:04:07.768Z,27.90
2022-11-24T20:06:38.077Z,23.80
2022-11-24T20:09:08.918Z,28.40
2022-11-24T20:11:37.068Z,21.30
2022-11-24T20:14:06.264Z,28.50
2022-11-24T20:16:35.053Z,35.90
2022-11-24T20:19:06.364Z,35.80
2022-11-24T20:21:36.332Z,32.10
2022-11-24T20:24:12.391Z,22.60
2022-11-24T20:26:52.357Z,19.00
2022-11-24T20:29:20.301Z,19.60
2022-11-24T20:31:51.422Z,18.70
2022-11-24T20:34:20.463Z,20.00
2022-11-24T20:36:48.631Z,22.30
2022-11-24T20:39:19.640Z,23.40
2022-11-24T20:41:47.591Z,26.40
2022-11-24T20:44:17.440Z,23.90
2022-11-24T20:46:46.626Z,20.90
2022-11-24T20:49:16.707Z,18.70
2022-11-24T20:51:47.249Z,20.90
2022-11-24T20:54:17.428Z,22.50
2022-11-24T20:56:46.579Z,19.90
2022-11-24T20:59:17.648Z,18.00
2022-11-24T21:01:47.111Z,20.20
2022-11-24T21:04:21.347Z,20.40
2022-11-24T21:06:49.406Z,20.70
2022-11-24T21:09:17.346Z,20.30
2022-11-24T21:11:45.593Z,21.60
2022-11-24T21:14:13.567Z,18.10
2022-11-24T21:16:42.685Z,19.00
2022-11-24T21:19:12.713Z,20.20
2022-11-24T21:21:42.469Z,19.00
2022-11-24T21:24:14.211Z,25.70
2022-11-24T21:26:47.243Z,23.60
2022-11-24T21:29:18.809Z,21.30
2022-11-24T21:31:46.717Z,20.70
2022-11-24T21:34:16.569Z,18.80
2022-11-24T21:36:45.139Z,18.70
2022-11-24T21:39:14.647Z,19.10
2022-11-24T21:41:43.245Z,18.80
2022-11-24T21:44:12.774Z,18.70
2022-11-24T21:46:46.267Z,18.10
2022-11-24T21:49:16.986Z,20.20
2022-11-24T21:51:44.664Z,18.50
2022-11-24T21:54:12.200Z,21.10
2022-11-24T21:56:39.729Z,20.90
2022-11-24T21:59:07.338Z,19.10
2022-11-24T22:01:34.857Z,21.30
2022-11-24T22:04:02.513Z,20.60
2022-11-24T22:06:32.035Z,24.40
2022-11-24T22:08:59.555Z,21.10
2022-11-24T22:11:27.088Z,27.00
2022-11-24T22:13:54.625Z,30.70
2022-11-24T22:16:24.306Z,31.70
2022-11-24T22:18:52.248Z,23.20
2022-11-24T22:21:23.764Z,20.80
2022-11-24T22:23:54.776Z,17.50
2022-11-24T22:26:23.802Z,18.50
2022-11-24T22:28:53.186Z,19.70
2022-11-24T22:31:26.880Z,22.80
2022-11-24T22:33:55.928Z,23.90
2022-11-24T22:36:26.089Z,24.60
2022-11-24T22:38:58.241Z,20.30
2022-11-24T22:41:26.051Z,24.80
2022-11-24T22:43:53.848Z,24.90
2022-11-24T22:46:23.682Z,23.80
2022-11-24T22:48:53.789Z,21.00
2022-11-24T22:51:38.457Z,19.30
2022-11-24T22:54:06.235Z,17.50
2022-11-24T22:56:34.088Z,20.10
2022-11-24T22:59:02.845Z,18.60
2022-11-24T23:01:33.422Z,18.50
2022-11-24T23:04:01.154Z,23.00
2022-11-24T23:06:30.587Z,24.80
2022-11-24T23:09:00.199Z,21.80
2022-11-24T23:11:36.399Z,23.90
2022-11-24T23:14:13.861Z,20.70
2022-11-24T23:16:42.122Z,23.70
2022-11-24T23:19:10.234Z,22.10
2022-11-24T23:21:38.911Z,19.50
2022-11-24T23:24:07.752Z,20.40
2022-11-24T23:26:38.093Z,19.20
2022-11-24T23:29:06.768Z,18.80
2022-11-24T23:31:35.619Z,18.10
2022-11-24T23:34:04.145Z,18.80
2022-11-24T23:36:32.923Z,19.10
2022-11-24T23:39:06.438Z,25.20
2022-11-24T23:41:34.668Z,20.70
2022-11-24T23:44:02.204Z,19.40
2022-11-24T23:46:30.329Z,22.50
2022-11-24T23:48:58.356Z,20.20
2022-11-24T23:51:31.200Z,20.20
2022-11-24T23:53:59.999Z,18.70
2022-11-24T23:56:33.232Z,19.40
2022-11-24T23:59:02.597Z,18.30
